Terminal Aerodrome Forecast
Issued by NWS

Home | Current Version | Previous Version | Text Only | Print | Product List | Glossary Off
Versions: 1 2 3 4 5 6 7 8 9 10 11 12

000
FTUS43 KMPX 152320
TAFRNH
TAF
KRNH 152320Z 1600/1624 26005KT P6SM BKN080
     FM160400 24003KT P6SM SKC
     FM161500 22009KT P6SM SCT250=

USA.gov is the U.S. government's official web portal to all federal, state and local government web resources and services.